CW5361 Weather Reports


Display with metric or nautical units.
time (UTC)temp
F
wind
direction
speed
MPH
gust
MPH
rain 1hr
in
rain 24hr
in
rain mn
in
humidity
%
barometer
mb
20220117232110 32 331 9.0 14.0 0.00 0.04 0.00 10 1034.0
20220117230110 32 317 7.0 11.0 0.00 0.04 0.00 10 1033.7
20220117225110 32 314 7.0 12.0 0.00 0.04 0.04 10 1033.6
20220117224110 32 311 11.0 17.0 0.00 0.04 0.04 10 1033.5
20220117223110 32 320 10.0 13.0 0.00 0.04 0.04 10 1033.7
20220117222110 32 314 5.0 7.0 0.00 0.04 0.04 10 1033.6
20220117221110 32 314 4.0 6.0 0.00 0.04 0.04 10 1033.6
20220117220110 32 291 3.0 5.0 0.00 0.04 0.04 10 1033.5
20220117215110 32 295 4.0 6.0 0.00 0.04 0.04 10 1033.5
20220117214110 32 314 5.0 6.0 0.00 0.04 0.04 10 1033.5
20220117213110 32 303 5.0 7.0 0.00 0.04 0.04 10 1033.5
20220117212110 32 314 5.0 6.0 0.00 0.04 0.04 10 1033.5
20220117211110 32 314 6.0 7.0 0.00 0.04 0.04 10 1033.5
20220117210110 32 319 6.0 9.0 0.00 0.04 0.04 10 1033.4
20220117205110 32 329 5.0 7.0 0.00 0.04 0.04 10 1033.2
20220117204110 32 309 8.0 11.0 0.00 0.04 0.04 10 1033.0
20220117203109 32 293 7.0 11.0 0.00 0.04 0.04 10 1032.9
20220117201109 32 317 7.0 11.0 0.00 0.04 0.04 10 1032.7
20220117200109 32 299 7.0 10.0 0.00 0.04 0.04 10 1032.4
20220117195109 32 309 9.0 12.0 0.00 0.04 0.04 10 1032.2
20220117194109 32 303 9.0 14.0 0.01 0.04 0.04 10 1032.1
20220117193109 32 324 13.0 16.0 0.02 0.04 0.04 10 1031.8
20220117192109 32 320 14.0 19.0 0.02 0.04 0.04 10 1031.8
20220117191110 32 325 10.0 16.0 0.02 0.04 0.04 10 1031.8
20220117190110 32 303 10.0 15.0 0.02 0.04 0.04 10 1031.8
20220117185109 32 348 12.0 20.0 0.02 0.04 0.04 10 1031.3
20220117184109 32 309 14.0 22.0 0.01 0.03 0.03 10 1031.3
20220117183109 33 11 17.0 29.0 0.00 0.02 0.02 10 1031.2
20220117182112 34 293 8.0 13.0 0.01 0.02 0.02 10 1030.5
20220117181109 34 314 5.0 14.0 0.02 0.02 0.02 10 1030.3
20220117180109 34 291 12.0 21.0 0.02 0.02 0.02 10 1030.0
20220117175111 34 277 14.0 19.0 0.02 0.02 0.02 10 1029.8
20220117174109 33 297 11.0 19.0 0.02 0.02 0.02 10 1029.8
20220117173109 33 236 12.0 16.0 0.02 0.02 0.02 10 1029.6
20220117172110 33 283 10.0 20.0 0.02 0.02 0.02 10 1029.3
20220117171109 33 245 14.0 21.0 0.01 0.01 0.01 10 1028.9
20220117170109 33 258 19.0 24.0 0.00 0.00 0.00 10 1028.5
20220117165109 34 264 16.0 29.0 0.00 0.00 0.00 10 1028.3
20220117164109 34 257 23.0 28.0 0.00 0.00 0.00 10 1027.8
20220117163109 34 234 18.0 25.0 0.00 0.00 0.00 10 1027.8
20220117162109 34 245 18.0 25.0 0.00 0.00 0.00 10 1027.6
20220117161109 34 279 19.0 26.0 0.00 0.00 0.00 10 1027.5
20220117160109 33 238 21.0 29.0 0.00 0.00 0.00 10 1027.3
20220117155109 34 271 17.0 25.0 0.00 0.00 0.00 10 1027.2
20220117154108 33 233 19.0 28.0 0.00 0.00 0.00 10 1027.2
20220117153113 33 290 20.0 30.0 0.00 0.00 0.00 10 1027.1
20220117152113 33 248 20.0 28.0 0.00 0.00 0.00 10 1027.3
20220117151113 33 267 21.0 28.0 0.00 0.00 0.00 10 1027.3
20220117150113 33 271 25.0 32.0 0.00 0.00 0.00 10 1026.9
20220117145113 33 272 22.0 34.0 0.00 0.00 0.00 10 1026.8
20220117144113 33 241 21.0 33.0 0.00 0.00 0.00 10 1026.4
20220117143113 33 259 16.0 30.0 0.00 0.00 0.00 10 1026.5
20220117142113 33 238 16.0 23.0 0.00 0.00 0.00 10 1026.4
20220117141113 33 257 17.0 26.0 0.00 0.00 0.00 10 1026.4
20220117140113 33 255 19.0 25.0 0.00 0.00 0.00 10 1026.8
20220117135113 33 283 21.0 28.0 0.00 0.00 0.00 10 1026.5
20220117134113 33 236 21.0 30.0 0.00 0.00 0.00 10 1026.5
20220117133113 33 264 22.0 32.0 0.00 0.00 0.00 10 1026.6
20220117132113 33 262 19.0 30.0 0.00 0.00 0.00 10 1026.8
20220117131113 33 277 25.0 36.0 0.00 0.00 0.00 10 1026.8
20220117130113 33 265 21.0 25.0 0.00 0.00 0.00 10 1026.5
20220117125113 33 257 22.0 27.0 0.00 0.00 0.00 10 1026.8
20220117124113 33 243 17.0 26.0 0.00 0.00 0.00 10 1026.7
20220117123112 33 255 16.0 27.0 0.00 0.00 0.00 10 1026.8
20220117122112 33 248 14.0 25.0 0.00 0.00 0.00 10 1026.9
20220117121112 33 250 16.0 25.0 0.00 0.00 0.00 10 1026.9
20220117120112 33 252 21.0 30.0 0.00 0.00 0.00 10 1026.6
20220117115113 32 227 14.0 32.0 0.00 0.00 0.00 10 1027.0
20220117114112 32 233 18.0 35.0 0.00 0.00 0.00 10 1027.0
20220117113113 32 264 11.0 26.0 0.00 0.00 0.00 10 1027.5
20220117112112 32 252 7.0 14.0 0.00 0.00 0.00 10 1027.0
20220117111112 32 252 15.0 34.0 0.00 0.00 0.00 10 1027.0
20220117110112 32 252 6.0 11.0 0.00 0.00 0.00 10 1027.1
20220117105112 32 233 8.0 29.0 0.00 0.00 0.00 10 1027.4
20220117104112 32 271 7.0 11.0 0.00 0.00 0.00 10 1027.6
20220117103112 32 95 9.0 40.0 0.00 0.00 0.00 10 1027.4
20220117102112 32 28 0.0 11.0 0.00 0.00 0.00 10 1027.5
20220117101112 32 271 5.0 11.0 0.00 0.00 0.00 10 1027.5
20220117100112 32 269 5.0 6.0 0.00 0.00 0.00 10 1027.5
20220117095112 32 269 5.0 6.0 0.00 0.00 0.00 10 1027.7
20220117094112 32 276 4.0 9.0 0.00 0.00 0.00 10 1027.7
20220117093113 32 252 4.0 6.0 0.00 0.00 0.00 10 1027.8
20220117092112 32 250 4.0 5.0 0.00 0.00 0.00 10 1027.6
20220117091112 32 250 4.0 5.0 0.00 0.00 0.00 10 1027.7
20220117090112 32 250 4.0 5.0 0.00 0.00 0.00 10 1027.6
20220117085112 32 250 4.0 5.0 0.00 0.00 0.00 10 1027.4
20220117084111 32 250 4.0 5.0 0.00 0.00 0.00 10 1026.9
20220117083112 32 250 4.0 5.0 0.00 0.00 0.00 10 1027.0
20220117082112 32 250 4.0 5.0 0.00 0.00 0.00 10 1027.0
20220117081112 32 250 4.0 5.0 0.00 0.00 0.00 10 1027.0
20220117080111 32 250 4.0 5.0 0.00 0.00 0.00 10 1027.0
20220117075111 32 250 4.0 5.0 0.00 0.00 0.00 10 1027.0
20220117074111 32 250 4.0 5.0 0.00 0.00 0.00 10 1027.0
20220117073111 32 250 4.0 5.0 0.00 0.00 0.00 10 1027.1
20220117072111 32 250 4.0 5.0 0.00 0.00 0.00 10 1027.0
20220117071111 32 250 4.0 5.0 0.00 0.00 0.00 10 1026.9
20220117070111 32 250 4.0 5.0 0.00 0.00 0.00 10 1026.4
20220117065111 32 250 4.0 5.0 0.00 0.00 0.00 10 1026.4
20220117064111 32 250 4.0 5.0 0.00 0.00 0.00 10 1026.5
20220117063111 32 250 4.0 5.0 0.00 0.00 0.00 10 1026.4
20220117062112 32 250 4.0 5.0 0.00 0.00 0.00 10 1026.2
20220117061111 32 250 4.0 5.0 0.00 0.00 0.00 10 1026.5
20220117060111 32 250 4.0 5.0 0.00 0.00 0.00 10 1026.9
20220117055111 32 250 4.0 5.0 0.00 0.00 0.00 10 1026.6
20220117054111 32 250 4.0 5.0 0.00 0.00 0.00 10 1026.7
20220117053111 32 250 4.0 5.0 0.00 0.00 0.00 10 1026.7
20220117052113 32 250 4.0 5.0 0.00 0.00 0.00 10 1026.6
20220117051111 32 250 4.0 5.0 0.00 0.00 0.00 10 1026.6
20220117050111 32 250 4.0 5.0 0.00 0.00 0.00 10 1026.6
20220117045111 32 250 4.0 5.0 0.00 0.00 0.00 10 1026.7
20220117044111 32 250 4.0 5.0 0.00 0.00 0.00 10 1026.7
20220117043111 32 250 4.0 5.0 0.00 0.00 0.00 10 1026.9
20220117042110 32 250 4.0 5.0 0.00 0.00 0.00 10 1026.9
20220117041110 31 250 4.0 5.0 0.00 0.00 0.00 10 1027.0
20220117040110 31 250 4.0 5.0 0.00 0.00 0.00 10 1027.0
20220117035112 31 250 4.0 5.0 0.00 0.00 0.00 10 1026.6
20220117034110 31 250 4.0 5.0 0.00 0.00 0.00 10 1026.5
20220117033110 31 0 4.0 4.0 0.00 0.00 0.00 10 1026.5
20220117032110 31 0 4.0 4.0 0.00 0.00 0.00 10 1026.8
20220117031110 31 0 4.0 4.0 0.00 0.00 0.00 10 1026.7
20220117030110 31 250 4.0 5.0 0.00 0.00 0.00 10 1026.8
20220117025110 31 250 4.0 5.0 0.00 0.00 0.00 10 1027.2
20220117024110 31 250 4.0 5.0 0.00 0.00 0.00 10 1027.1
20220117023110 31 250 4.0 5.0 0.00 0.00 0.00 10 1027.2
20220117022110 31 250 4.0 5.0 0.00 0.00 0.00 10 1027.3
20220117021110 31 250 4.0 5.0 0.00 0.00 0.00 10 1027.3
20220117020110 31 250 4.0 5.0 0.00 0.00 0.00 10 1027.4
20220117015110 31 250 4.0 5.0 0.00 0.00 0.00 10 1027.8
20220117014110 31 250 4.0 5.0 0.00 0.00 0.00 10 1027.4
20220117013110 31 250 4.0 5.0 0.00 0.00 0.00 10 1027.4
20220117012109 31 250 4.0 5.0 0.00 0.00 0.00 10 1027.4
20220117011109 31 250 4.0 5.0 0.00 0.00 0.00 10 1027.7
20220117010109 31 250 4.0 5.0 0.00 0.00 0.00 10 1027.7
20220117005110 31 250 4.0 5.0 0.00 0.00 0.00 10 1027.7
20220117004110 31 250 4.0 5.0 0.00 0.00 0.00 10 1027.6
20220117003109 31 250 4.0 5.0 0.00 0.00 0.00 10 1027.6
20220117002109 31 250 4.0 5.0 0.00 0.00 0.00 10 1027.9
20220117001109 31 250 4.0 5.0 0.00 0.00 0.00 10 1027.9
20220117000109 31 250 4.0 5.0 0.00 0.00 0.00 10 1027.9
20220116235109 31 250 4.0 5.0 0.00 0.00 0.00 10 1027.9
20220116234109 31 250 4.0 5.0 0.00 0.00 0.00 10 1027.9
20220116233109 31 250 4.0 5.0 0.00 0.00 0.00 10 1027.6